sensor_id;sensor_type;location;lat;lon;timestamp;temperature;humidity
13686;DHT22;6915;48.296;8.874;2023-03-23T00:01:16;9.70;99.90
13686;DHT22;6915;48.296;8.874;2023-03-23T00:03:48;9.60;99.90
13686;DHT22;6915;48.296;8.874;2023-03-23T00:06:17;9.60;99.90
13686;DHT22;6915;48.296;8.874;2023-03-23T00:08:47;9.60;99.90
13686;DHT22;6915;48.296;8.874;2023-03-23T00:11:19;9.60;99.90
13686;DHT22;6915;48.296;8.874;2023-03-23T00:13:49;9.70;99.90
13686;DHT22;6915;48.296;8.874;2023-03-23T00:16:22;9.70;99.90
13686;DHT22;6915;48.296;8.874;2023-03-23T00:19:00;9.70;99.90
13686;DHT22;6915;48.296;8.874;2023-03-23T00:21:31;9.70;99.90
13686;DHT22;6915;48.296;8.874;2023-03-23T00:24:05;9.70;99.90
13686;DHT22;6915;48.296;8.874;2023-03-23T00:26:36;9.70;99.90
13686;DHT22;6915;48.296;8.874;2023-03-23T00:29:10;9.50;99.90
13686;DHT22;6915;48.296;8.874;2023-03-23T00:31:43;9.60;99.90
13686;DHT22;6915;48.296;8.874;2023-03-23T00:34:15;9.60;99.90
13686;DHT22;6915;48.296;8.874;2023-03-23T00:36:47;9.60;99.90
13686;DHT22;6915;48.296;8.874;2023-03-23T00:39:17;9.60;99.90
13686;DHT22;6915;48.296;8.874;2023-03-23T00:41:46;9.50;99.90
13686;DHT22;6915;48.296;8.874;2023-03-23T00:44:15;9.50;99.90
13686;DHT22;6915;48.296;8.874;2023-03-23T00:46:46;9.50;99.90
13686;DHT22;6915;48.296;8.874;2023-03-23T00:49:17;9.60;99.90
13686;DHT22;6915;48.296;8.874;2023-03-23T00:51:47;9.70;99.90
13686;DHT22;6915;48.296;8.874;2023-03-23T00:54:15;9.70;99.90
13686;DHT22;6915;48.296;8.874;2023-03-23T00:56:44;9.70;99.90
13686;DHT22;6915;48.296;8.874;2023-03-23T00:59:13;9.70;99.90
13686;DHT22;6915;48.296;8.874;2023-03-23T01:01:42;9.70;99.90
13686;DHT22;6915;48.296;8.874;2023-03-23T01:04:13;9.80;99.90
13686;DHT22;6915;48.296;8.874;2023-03-23T01:06:43;9.70;99.90
13686;DHT22;6915;48.296;8.874;2023-03-23T01:09:14;9.80;99.90
13686;DHT22;6915;48.296;8.874;2023-03-23T01:11:44;9.70;99.90
13686;DHT22;6915;48.296;8.874;2023-03-23T01:14:15;9.90;99.90
13686;DHT22;6915;48.296;8.874;2023-03-23T01:16:46;9.70;99.90
13686;DHT22;6915;48.296;8.874;2023-03-23T01:19:16;9.70;99.90
13686;DHT22;6915;48.296;8.874;2023-03-23T01:21:45;9.70;99.90
13686;DHT22;6915;48.296;8.874;2023-03-23T01:24:14;9.70;99.90
13686;DHT22;6915;48.296;8.874;2023-03-23T01:26:42;9.70;99.90
13686;DHT22;6915;48.296;8.874;2023-03-23T01:29:11;9.80;99.90
13686;DHT22;6915;48.296;8.874;2023-03-23T01:31:40;9.90;99.90
13686;DHT22;6915;48.296;8.874;2023-03-23T01:34:10;9.90;99.90
13686;DHT22;6915;48.296;8.874;2023-03-23T01:36:39;9.90;99.90
13686;DHT22;6915;48.296;8.874;2023-03-23T01:39:08;9.90;99.90
13686;DHT22;6915;48.296;8.874;2023-03-23T01:41:37;9.90;99.90
13686;DHT22;6915;48.296;8.874;2023-03-23T01:45:09;9.90;99.90
13686;DHT22;6915;48.296;8.874;2023-03-23T01:46:56;9.80;99.90
13686;DHT22;6915;48.296;8.874;2023-03-23T01:49:27;9.80;99.90
13686;DHT22;6915;48.296;8.874;2023-03-23T01:52:03;9.90;99.90
13686;DHT22;6915;48.296;8.874;2023-03-23T01:54:33;9.80;99.90
13686;DHT22;6915;48.296;8.874;2023-03-23T01:57:05;10.10;99.90
13686;DHT22;6915;48.296;8.874;2023-03-23T01:59:35;10.30;99.90
13686;DHT22;6915;48.296;8.874;2023-03-23T02:02:04;10.70;99.90
13686;DHT22;6915;48.296;8.874;2023-03-23T02:04:35;11.00;99.90
13686;DHT22;6915;48.296;8.874;2023-03-23T02:07:06;11.10;99.90
13686;DHT22;6915;48.296;8.874;2023-03-23T02:09:34;11.30;99.90
13686;DHT22;6915;48.296;8.874;2023-03-23T02:12:04;11.40;99.90
13686;DHT22;6915;48.296;8.874;2023-03-23T02:14:34;11.60;99.90
13686;DHT22;6915;48.296;8.874;2023-03-23T02:17:07;11.70;99.90
13686;DHT22;6915;48.296;8.874;2023-03-23T02:19:59;11.80;99.90
13686;DHT22;6915;48.296;8.874;2023-03-23T02:22:54;11.80;99.90
13686;DHT22;6915;48.296;8.874;2023-03-23T02:25:46;11.90;99.90
13686;DHT22;6915;48.296;8.874;2023-03-23T02:28:24;11.90;99.90
13686;DHT22;6915;48.296;8.874;2023-03-23T02:31:08;11.80;99.90
13686;DHT22;6915;48.296;8.874;2023-03-23T02:33:46;11.70;99.90
13686;DHT22;6915;48.296;8.874;2023-03-23T02:36:20;11.70;99.90
13686;DHT22;6915;48.296;8.874;2023-03-23T02:38:55;11.70;99.90
13686;DHT22;6915;48.296;8.874;2023-03-23T02:41:30;11.70;99.90
13686;DHT22;6915;48.296;8.874;2023-03-23T02:44:00;11.90;99.90
13686;DHT22;6915;48.296;8.874;2023-03-23T02:46:30;12.00;99.90
13686;DHT22;6915;48.296;8.874;2023-03-23T02:49:03;12.10;99.90
13686;DHT22;6915;48.296;8.874;2023-03-23T02:51:35;12.10;99.90
13686;DHT22;6915;48.296;8.874;2023-03-23T02:54:06;12.20;99.90
13686;DHT22;6915;48.296;8.874;2023-03-23T02:56:36;12.30;99.90
13686;DHT22;6915;48.296;8.874;2023-03-23T02:59:05;12.40;99.90
13686;DHT22;6915;48.296;8.874;2023-03-23T03:01:51;12.40;99.90
13686;DHT22;6915;48.296;8.874;2023-03-23T03:04:26;12.50;99.90
13686;DHT22;6915;48.296;8.874;2023-03-23T03:07:10;12.50;99.90
13686;DHT22;6915;48.296;8.874;2023-03-23T03:09:46;12.60;99.90
13686;DHT22;6915;48.296;8.874;2023-03-23T03:12:23;12.70;99.90
13686;DHT22;6915;48.296;8.874;2023-03-23T03:15:02;12.60;99.90
13686;DHT22;6915;48.296;8.874;2023-03-23T03:17:38;12.50;99.90
13686;DHT22;6915;48.296;8.874;2023-03-23T03:20:12;12.40;99.90
13686;DHT22;6915;48.296;8.874;2023-03-23T03:22:43;12.50;99.90
13686;DHT22;6915;48.296;8.874;2023-03-23T03:25:14;12.50;99.90
13686;DHT22;6915;48.296;8.874;2023-03-23T03:27:46;12.50;99.90
13686;DHT22;6915;48.296;8.874;2023-03-23T03:30:19;12.50;99.90
13686;DHT22;6915;48.296;8.874;2023-03-23T03:32:52;12.40;99.90
13686;DHT22;6915;48.296;8.874;2023-03-23T03:35:24;12.40;99.90
13686;DHT22;6915;48.296;8.874;2023-03-23T03:37:53;12.50;99.90
13686;DHT22;6915;48.296;8.874;2023-03-23T03:40:23;12.50;99.90
13686;DHT22;6915;48.296;8.874;2023-03-23T03:42:52;12.60;99.90
13686;DHT22;6915;48.296;8.874;2023-03-23T03:45:21;12.60;99.90
13686;DHT22;6915;48.296;8.874;2023-03-23T03:47:50;12.70;99.90
13686;DHT22;6915;48.296;8.874;2023-03-23T03:50:19;12.80;99.90
13686;DHT22;6915;48.296;8.874;2023-03-23T03:52:49;12.80;99.90
13686;DHT22;6915;48.296;8.874;2023-03-23T03:55:18;12.80;99.90
13686;DHT22;6915;48.296;8.874;2023-03-23T03:57:47;12.90;99.90
13686;DHT22;6915;48.296;8.874;2023-03-23T04:00:18;13.00;99.90
13686;DHT22;6915;48.296;8.874;2023-03-23T04:02:48;13.10;99.90
13686;DHT22;6915;48.296;8.874;2023-03-23T04:05:18;13.10;99.90
13686;DHT22;6915;48.296;8.874;2023-03-23T04:07:47;13.10;99.90
13686;DHT22;6915;48.296;8.874;2023-03-23T04:10:20;13.10;99.90
13686;DHT22;6915;48.296;8.874;2023-03-23T04:12:49;13.10;99.90
13686;DHT22;6915;48.296;8.874;2023-03-23T04:15:18;13.00;99.90
13686;DHT22;6915;48.296;8.874;2023-03-23T04:17:47;13.00;99.90
13686;DHT22;6915;48.296;8.874;2023-03-23T04:20:16;12.90;99.90
13686;DHT22;6915;48.296;8.874;2023-03-23T04:22:46;12.90;99.90
13686;DHT22;6915;48.296;8.874;2023-03-23T04:25:18;12.80;99.90
13686;DHT22;6915;48.296;8.874;2023-03-23T04:27:49;12.80;99.90
13686;DHT22;6915;48.296;8.874;2023-03-23T04:30:21;12.70;99.90
13686;DHT22;6915;48.296;8.874;2023-03-23T04:32:51;12.80;99.90
13686;DHT22;6915;48.296;8.874;2023-03-23T04:35:23;12.70;99.90
13686;DHT22;6915;48.296;8.874;2023-03-23T04:37:53;12.70;99.90
13686;DHT22;6915;48.296;8.874;2023-03-23T04:40:22;12.70;99.90
13686;DHT22;6915;48.296;8.874;2023-03-23T04:42:53;12.70;99.90
13686;DHT22;6915;48.296;8.874;2023-03-23T04:45:25;12.60;99.90
13686;DHT22;6915;48.296;8.874;2023-03-23T04:47:54;12.70;99.90
13686;DHT22;6915;48.296;8.874;2023-03-23T04:50:26;12.70;99.90
13686;DHT22;6915;48.296;8.874;2023-03-23T04:52:58;12.60;99.90
13686;DHT22;6915;48.296;8.874;2023-03-23T04:55:31;12.60;99.90
13686;DHT22;6915;48.296;8.874;2023-03-23T04:58:05;12.60;99.90
13686;DHT22;6915;48.296;8.874;2023-03-23T05:00:34;12.50;99.90
13686;DHT22;6915;48.296;8.874;2023-03-23T05:03:03;12.60;99.90
13686;DHT22;6915;48.296;8.874;2023-03-23T05:05:33;12.60;99.90
13686;DHT22;6915;48.296;8.874;2023-03-23T05:08:05;12.50;99.90
13686;DHT22;6915;48.296;8.874;2023-03-23T05:10:34;12.50;99.90
13686;DHT22;6915;48.296;8.874;2023-03-23T05:13:04;12.60;99.90
13686;DHT22;6915;48.296;8.874;2023-03-23T05:15:35;12.50;99.90
13686;DHT22;6915;48.296;8.874;2023-03-23T05:18:04;12.50;99.90
13686;DHT22;6915;48.296;8.874;2023-03-23T05:20:33;12.50;99.90
13686;DHT22;6915;48.296;8.874;2023-03-23T05:23:01;12.60;99.90
13686;DHT22;6915;48.296;8.874;2023-03-23T05:25:30;12.50;99.90
13686;DHT22;6915;48.296;8.874;2023-03-23T05:27:59;12.50;99.90
13686;DHT22;6915;48.296;8.874;2023-03-23T05:30:30;12.50;99.90
13686;DHT22;6915;48.296;8.874;2023-03-23T05:32:58;12.50;99.90
13686;DHT22;6915;48.296;8.874;2023-03-23T05:35:27;12.50;99.90
13686;DHT22;6915;48.296;8.874;2023-03-23T05:37:56;12.40;99.90
13686;DHT22;6915;48.296;8.874;2023-03-23T05:40:25;12.50;99.90
13686;DHT22;6915;48.296;8.874;2023-03-23T05:42:55;12.50;99.90
13686;DHT22;6915;48.296;8.874;2023-03-23T05:45:26;12.40;99.90
13686;DHT22;6915;48.296;8.874;2023-03-23T05:47:56;12.50;99.90
13686;DHT22;6915;48.296;8.874;2023-03-23T05:50:25;12.40;99.90
13686;DHT22;6915;48.296;8.874;2023-03-23T05:52:56;12.40;99.90
13686;DHT22;6915;48.296;8.874;2023-03-23T05:55:25;12.60;99.90
13686;DHT22;6915;48.296;8.874;2023-03-23T05:57:54;12.40;99.90
13686;DHT22;6915;48.296;8.874;2023-03-23T06:00:27;12.50;99.90
13686;DHT22;6915;48.296;8.874;2023-03-23T06:02:59;12.50;99.90
13686;DHT22;6915;48.296;8.874;2023-03-23T06:05:28;12.60;99.90
13686;DHT22;6915;48.296;8.874;2023-03-23T06:07:57;12.60;99.90
13686;DHT22;6915;48.296;8.874;2023-03-23T06:10:26;12.50;99.90
13686;DHT22;6915;48.296;8.874;2023-03-23T06:12:55;12.50;99.90
13686;DHT22;6915;48.296;8.874;2023-03-23T06:15:24;12.50;99.90
13686;DHT22;6915;48.296;8.874;2023-03-23T06:17:57;12.60;99.90
13686;DHT22;6915;48.296;8.874;2023-03-23T06:20:27;12.60;99.90
13686;DHT22;6915;48.296;8.874;2023-03-23T06:22:56;12.60;99.90
13686;DHT22;6915;48.296;8.874;2023-03-23T06:25:25;12.70;99.90
13686;DHT22;6915;48.296;8.874;2023-03-23T06:27:53;12.80;99.90
13686;DHT22;6915;48.296;8.874;2023-03-23T06:30:20;12.90;99.90
13686;DHT22;6915;48.296;8.874;2023-03-23T06:32:49;13.00;99.90
13686;DHT22;6915;48.296;8.874;2023-03-23T06:35:18;13.00;99.90
13686;DHT22;6915;48.296;8.874;2023-03-23T06:37:49;13.00;99.90
13686;DHT22;6915;48.296;8.874;2023-03-23T06:40:19;13.00;99.90
13686;DHT22;6915;48.296;8.874;2023-03-23T06:42:49;13.00;99.90
13686;DHT22;6915;48.296;8.874;2023-03-23T06:45:17;13.20;99.90
13686;DHT22;6915;48.296;8.874;2023-03-23T06:47:47;13.30;99.90
13686;DHT22;6915;48.296;8.874;2023-03-23T06:50:16;13.30;99.90
13686;DHT22;6915;48.296;8.874;2023-03-23T06:52:47;13.40;99.90
13686;DHT22;6915;48.296;8.874;2023-03-23T06:55:16;13.50;99.90
13686;DHT22;6915;48.296;8.874;2023-03-23T06:57:46;13.50;99.90
13686;DHT22;6915;48.296;8.874;2023-03-23T07:00:16;13.50;99.90
13686;DHT22;6915;48.296;8.874;2023-03-23T07:02:45;13.50;99.90
13686;DHT22;6915;48.296;8.874;2023-03-23T07:05:14;13.80;99.90
13686;DHT22;6915;48.296;8.874;2023-03-23T07:08:12;13.50;99.90
13686;DHT22;6915;48.296;8.874;2023-03-23T07:10:32;13.60;99.90
13686;DHT22;6915;48.296;8.874;2023-03-23T07:13:02;13.60;99.90
13686;DHT22;6915;48.296;8.874;2023-03-23T07:15:31;13.50;99.90
13686;DHT22;6915;48.296;8.874;2023-03-23T07:18:00;13.60;99.90
13686;DHT22;6915;48.296;8.874;2023-03-23T07:20:28;13.60;99.90
13686;DHT22;6915;48.296;8.874;2023-03-23T07:22:57;13.60;99.90
13686;DHT22;6915;48.296;8.874;2023-03-23T07:25:29;13.60;99.90
13686;DHT22;6915;48.296;8.874;2023-03-23T07:27:59;13.70;99.90
13686;DHT22;6915;48.296;8.874;2023-03-23T07:33:07;13.60;99.90
13686;DHT22;6915;48.296;8.874;2023-03-23T07:35:37;13.60;99.90
13686;DHT22;6915;48.296;8.874;2023-03-23T07:38:09;13.60;99.90
13686;DHT22;6915;48.296;8.874;2023-03-23T07:40:38;13.60;99.90
13686;DHT22;6915;48.296;8.874;2023-03-23T07:43:09;13.50;99.90
13686;DHT22;6915;48.296;8.874;2023-03-23T07:45:39;13.60;99.90
13686;DHT22;6915;48.296;8.874;2023-03-23T07:48:08;13.60;99.90
13686;DHT22;6915;48.296;8.874;2023-03-23T07:50:37;13.60;99.90
13686;DHT22;6915;48.296;8.874;2023-03-23T07:53:07;13.70;99.90
13686;DHT22;6915;48.296;8.874;2023-03-23T07:55:37;13.80;99.90
13686;DHT22;6915;48.296;8.874;2023-03-23T07:58:06;13.90;99.90
13686;DHT22;6915;48.296;8.874;2023-03-23T08:00:37;14.00;99.90
13686;DHT22;6915;48.296;8.874;2023-03-23T08:03:07;14.00;99.90
13686;DHT22;6915;48.296;8.874;2023-03-23T08:05:36;14.10;99.90
13686;DHT22;6915;48.296;8.874;2023-03-23T08:08:08;14.20;99.90
13686;DHT22;6915;48.296;8.874;2023-03-23T08:10:38;14.20;99.90
13686;DHT22;6915;48.296;8.874;2023-03-23T08:13:07;14.30;99.90
13686;DHT22;6915;48.296;8.874;2023-03-23T08:15:40;14.40;99.90
13686;DHT22;6915;48.296;8.874;2023-03-23T08:18:09;14.40;99.90
13686;DHT22;6915;48.296;8.874;2023-03-23T08:20:39;14.60;99.90
13686;DHT22;6915;48.296;8.874;2023-03-23T08:23:08;14.60;99.90
13686;DHT22;6915;48.296;8.874;2023-03-23T08:25:37;14.70;99.90
13686;DHT22;6915;48.296;8.874;2023-03-23T08:28:06;14.70;99.90
13686;DHT22;6915;48.296;8.874;2023-03-23T08:30:40;14.80;99.90
13686;DHT22;6915;48.296;8.874;2023-03-23T08:33:10;14.90;99.90
13686;DHT22;6915;48.296;8.874;2023-03-23T08:35:39;14.90;99.90
13686;DHT22;6915;48.296;8.874;2023-03-23T08:38:10;14.90;99.90
13686;DHT22;6915;48.296;8.874;2023-03-23T08:40:39;14.90;99.90
13686;DHT22;6915;48.296;8.874;2023-03-23T08:43:07;15.00;99.90
13686;DHT22;6915;48.296;8.874;2023-03-23T08:45:37;14.90;99.90
13686;DHT22;6915;48.296;8.874;2023-03-23T08:48:08;14.80;99.90
13686;DHT22;6915;48.296;8.874;2023-03-23T08:50:38;14.70;99.90
13686;DHT22;6915;48.296;8.874;2023-03-23T08:53:07;14.80;99.90
13686;DHT22;6915;48.296;8.874;2023-03-23T08:55:36;14.70;99.90
13686;DHT22;6915;48.296;8.874;2023-03-23T08:58:04;14.80;99.90
13686;DHT22;6915;48.296;8.874;2023-03-23T09:00:33;14.90;99.90
13686;DHT22;6915;48.296;8.874;2023-03-23T09:03:03;14.80;99.90
13686;DHT22;6915;48.296;8.874;2023-03-23T09:05:32;14.80;99.90
13686;DHT22;6915;48.296;8.874;2023-03-23T09:08:03;14.80;99.90
13686;DHT22;6915;48.296;8.874;2023-03-23T09:10:32;14.80;99.90
13686;DHT22;6915;48.296;8.874;2023-03-23T09:13:01;14.70;99.90
13686;DHT22;6915;48.296;8.874;2023-03-23T09:15:30;14.80;99.90
13686;DHT22;6915;48.296;8.874;2023-03-23T09:18:00;14.90;99.90
13686;DHT22;6915;48.296;8.874;2023-03-23T09:20:30;15.00;99.90
13686;DHT22;6915;48.296;8.874;2023-03-23T09:23:00;15.10;99.90
13686;DHT22;6915;48.296;8.874;2023-03-23T09:25:29;15.20;99.90
13686;DHT22;6915;48.296;8.874;2023-03-23T09:27:59;15.30;99.90
13686;DHT22;6915;48.296;8.874;2023-03-23T09:30:30;15.30;99.90
13686;DHT22;6915;48.296;8.874;2023-03-23T09:33:02;15.20;99.90
13686;DHT22;6915;48.296;8.874;2023-03-23T09:35:33;15.20;99.90
13686;DHT22;6915;48.296;8.874;2023-03-23T09:38:05;15.30;99.90
13686;DHT22;6915;48.296;8.874;2023-03-23T09:40:39;15.40;99.90
13686;DHT22;6915;48.296;8.874;2023-03-23T09:43:24;15.40;99.90
13686;DHT22;6915;48.296;8.874;2023-03-23T09:46:04;15.40;99.90
13686;DHT22;6915;48.296;8.874;2023-03-23T09:48:41;15.40;99.90
13686;DHT22;6915;48.296;8.874;2023-03-23T09:51:21;15.40;99.90
13686;DHT22;6915;48.296;8.874;2023-03-23T09:53:56;15.40;99.90
13686;DHT22;6915;48.296;8.874;2023-03-23T09:56:28;15.50;99.90
13686;DHT22;6915;48.296;8.874;2023-03-23T09:59:02;15.60;99.90
13686;DHT22;6915;48.296;8.874;2023-03-23T10:01:35;15.70;99.90
13686;DHT22;6915;48.296;8.874;2023-03-23T10:04:09;15.80;99.90
13686;DHT22;6915;48.296;8.874;2023-03-23T10:06:41;15.70;99.90
13686;DHT22;6915;48.296;8.874;2023-03-23T10:09:16;15.60;99.90
13686;DHT22;6915;48.296;8.874;2023-03-23T10:11:53;15.60;99.90
13686;DHT22;6915;48.296;8.874;2023-03-23T10:14:31;15.50;99.90
13686;DHT22;6915;48.296;8.874;2023-03-23T10:17:09;15.60;99.90
13686;DHT22;6915;48.296;8.874;2023-03-23T10:19:46;15.70;99.90
13686;DHT22;6915;48.296;8.874;2023-03-23T10:22:19;15.70;99.90
13686;DHT22;6915;48.296;8.874;2023-03-23T10:24:54;15.60;99.90
13686;DHT22;6915;48.296;8.874;2023-03-23T10:27:29;15.60;99.90
13686;DHT22;6915;48.296;8.874;2023-03-23T10:30:10;15.50;99.90
13686;DHT22;6915;48.296;8.874;2023-03-23T10:32:47;15.40;99.90
13686;DHT22;6915;48.296;8.874;2023-03-23T10:35:20;15.30;99.90
13686;DHT22;6915;48.296;8.874;2023-03-23T10:37:56;15.20;99.90
13686;DHT22;6915;48.296;8.874;2023-03-23T10:40:31;15.10;99.90
13686;DHT22;6915;48.296;8.874;2023-03-23T10:43:02;15.00;99.90
13686;DHT22;6915;48.296;8.874;2023-03-23T10:45:33;15.10;99.90
13686;DHT22;6915;48.296;8.874;2023-03-23T10:48:06;15.10;99.90
13686;DHT22;6915;48.296;8.874;2023-03-23T10:50:37;15.10;99.90
13686;DHT22;6915;48.296;8.874;2023-03-23T10:53:14;15.00;99.90
13686;DHT22;6915;48.296;8.874;2023-03-23T10:55:45;14.90;99.90
13686;DHT22;6915;48.296;8.874;2023-03-23T10:58:24;15.00;99.90
13686;DHT22;6915;48.296;8.874;2023-03-23T11:00:56;15.00;99.90
13686;DHT22;6915;48.296;8.874;2023-03-23T11:03:38;15.10;99.90
13686;DHT22;6915;48.296;8.874;2023-03-23T11:06:09;15.20;99.90
13686;DHT22;6915;48.296;8.874;2023-03-23T11:08:51;15.30;99.90
13686;DHT22;6915;48.296;8.874;2023-03-23T11:11:25;15.50;99.90
13686;DHT22;6915;48.296;8.874;2023-03-23T11:13:59;15.70;99.90
13686;DHT22;6915;48.296;8.874;2023-03-23T11:16:30;16.00;99.90
13686;DHT22;6915;48.296;8.874;2023-03-23T11:19:11;16.00;99.90
13686;DHT22;6915;48.296;8.874;2023-03-23T11:21:41;15.90;99.90
13686;DHT22;6915;48.296;8.874;2023-03-23T11:24:16;15.90;99.90
13686;DHT22;6915;48.296;8.874;2023-03-23T11:26:46;15.80;99.90
13686;DHT22;6915;48.296;8.874;2023-03-23T11:29:17;15.70;99.90
13686;DHT22;6915;48.296;8.874;2023-03-23T11:31:47;15.70;99.90
13686;DHT22;6915;48.296;8.874;2023-03-23T11:34:19;15.80;99.90
13686;DHT22;6915;48.296;8.874;2023-03-23T11:36:51;15.90;99.90
13686;DHT22;6915;48.296;8.874;2023-03-23T11:39:25;16.10;99.90
13686;DHT22;6915;48.296;8.874;2023-03-23T11:41:56;16.30;99.90
13686;DHT22;6915;48.296;8.874;2023-03-23T11:44:33;16.50;99.90
13686;DHT22;6915;48.296;8.874;2023-03-23T11:47:04;16.60;99.90
13686;DHT22;6915;48.296;8.874;2023-03-23T11:49:44;16.70;99.90
13686;DHT22;6915;48.296;8.874;2023-03-23T11:52:16;16.80;99.90
13686;DHT22;6915;48.296;8.874;2023-03-23T11:54:54;17.00;99.90
13686;DHT22;6915;48.296;8.874;2023-03-23T11:57:25;17.20;99.90
13686;DHT22;6915;48.296;8.874;2023-03-23T11:59:55;17.30;99.90
13686;DHT22;6915;48.296;8.874;2023-03-23T12:05:36;17.60;99.90
13686;DHT22;6915;48.296;8.874;2023-03-23T12:08:21;17.50;99.90
13686;DHT22;6915;48.296;8.874;2023-03-23T12:10:58;17.50;99.90
13686;DHT22;6915;48.296;8.874;2023-03-23T12:13:40;17.40;99.90
13686;DHT22;6915;48.296;8.874;2023-03-23T12:16:23;17.20;99.90
13686;DHT22;6915;48.296;8.874;2023-03-23T12:19:00;17.00;99.90
13686;DHT22;6915;48.296;8.874;2023-03-23T12:21:38;17.00;99.90
13686;DHT22;6915;48.296;8.874;2023-03-23T12:24:18;17.10;99.90
13686;DHT22;6915;48.296;8.874;2023-03-23T12:26:53;17.20;99.90
13686;DHT22;6915;48.296;8.874;2023-03-23T12:32:43;17.20;99.90
13686;DHT22;6915;48.296;8.874;2023-03-23T12:35:30;17.30;99.90
13686;DHT22;6915;48.296;8.874;2023-03-23T12:41:01;17.20;99.90
13686;DHT22;6915;48.296;8.874;2023-03-23T12:43:38;17.10;99.90
13686;DHT22;6915;48.296;8.874;2023-03-23T12:46:30;17.00;99.90
13686;DHT22;6915;48.296;8.874;2023-03-23T12:49:07;16.90;99.90
13686;DHT22;6915;48.296;8.874;2023-03-23T12:51:40;16.90;99.90
13686;DHT22;6915;48.296;8.874;2023-03-23T12:54:13;16.90;99.90
13686;DHT22;6915;48.296;8.874;2023-03-23T12:56:50;16.80;99.90
13686;DHT22;6915;48.296;8.874;2023-03-23T12:59:26;16.70;99.90
13686;DHT22;6915;48.296;8.874;2023-03-23T13:01:59;16.60;99.90
13686;DHT22;6915;48.296;8.874;2023-03-23T13:04:30;16.50;99.90
13686;DHT22;6915;48.296;8.874;2023-03-23T13:07:03;16.40;99.90
13686;DHT22;6915;48.296;8.874;2023-03-23T13:09:36;16.40;99.90
13686;DHT22;6915;48.296;8.874;2023-03-23T13:12:07;16.30;99.90
13686;DHT22;6915;48.296;8.874;2023-03-23T13:14:45;16.30;99.90
13686;DHT22;6915;48.296;8.874;2023-03-23T13:17:24;16.30;99.90
13686;DHT22;6915;48.296;8.874;2023-03-23T13:20:16;16.20;99.90
13686;DHT22;6915;48.296;8.874;2023-03-23T13:22:54;16.30;99.90
13686;DHT22;6915;48.296;8.874;2023-03-23T13:25:36;16.20;99.90
13686;DHT22;6915;48.296;8.874;2023-03-23T13:28:12;16.10;99.90
13686;DHT22;6915;48.296;8.874;2023-03-23T13:33:17;16.20;99.90
13686;DHT22;6915;48.296;8.874;2023-03-23T13:35:48;16.10;99.90
13686;DHT22;6915;48.296;8.874;2023-03-23T13:38:23;16.20;99.90
13686;DHT22;6915;48.296;8.874;2023-03-23T13:40:52;16.40;99.90
13686;DHT22;6915;48.296;8.874;2023-03-23T13:43:30;16.40;99.90
13686;DHT22;6915;48.296;8.874;2023-03-23T13:46:09;16.40;99.90
13686;DHT22;6915;48.296;8.874;2023-03-23T13:48:45;16.40;99.90
13686;DHT22;6915;48.296;8.874;2023-03-23T13:51:26;16.40;99.90
13686;DHT22;6915;48.296;8.874;2023-03-23T13:54:06;16.50;99.90
13686;DHT22;6915;48.296;8.874;2023-03-23T13:56:40;16.50;99.90
13686;DHT22;6915;48.296;8.874;2023-03-23T13:59:12;16.40;99.90
13686;DHT22;6915;48.296;8.874;2023-03-23T14:01:42;16.40;99.90
13686;DHT22;6915;48.296;8.874;2023-03-23T14:04:16;16.30;99.90
13686;DHT22;6915;48.296;8.874;2023-03-23T14:06:47;16.30;99.90
13686;DHT22;6915;48.296;8.874;2023-03-23T14:09:19;16.20;99.90
13686;DHT22;6915;48.296;8.874;2023-03-23T14:11:50;16.10;99.90
13686;DHT22;6915;48.296;8.874;2023-03-23T14:14:24;16.10;99.90
13686;DHT22;6915;48.296;8.874;2023-03-23T14:17:04;16.10;99.90
13686;DHT22;6915;48.296;8.874;2023-03-23T14:19:37;16.00;99.90
13686;DHT22;6915;48.296;8.874;2023-03-23T14:22:17;16.00;99.90
13686;DHT22;6915;48.296;8.874;2023-03-23T14:24:46;15.90;99.90
13686;DHT22;6915;48.296;8.874;2023-03-23T14:27:18;15.80;99.90
13686;DHT22;6915;48.296;8.874;2023-03-23T14:29:59;15.80;99.90
13686;DHT22;6915;48.296;8.874;2023-03-23T14:32:30;15.70;99.90
13686;DHT22;6915;48.296;8.874;2023-03-23T14:35:04;15.80;99.90
13686;DHT22;6915;48.296;8.874;2023-03-23T14:37:34;15.80;99.90
13686;DHT22;6915;48.296;8.874;2023-03-23T14:40:04;15.80;99.90
13686;DHT22;6915;48.296;8.874;2023-03-23T14:42:35;15.90;99.90
13686;DHT22;6915;48.296;8.874;2023-03-23T14:45:06;15.80;99.90
13686;DHT22;6915;48.296;8.874;2023-03-23T14:47:47;15.70;99.90
13686;DHT22;6915;48.296;8.874;2023-03-23T14:50:29;15.70;99.90
13686;DHT22;6915;48.296;8.874;2023-03-23T14:53:11;15.60;99.90
13686;DHT22;6915;48.296;8.874;2023-03-23T14:55:45;15.60;99.90
13686;DHT22;6915;48.296;8.874;2023-03-23T14:58:16;15.60;99.90
13686;DHT22;6915;48.296;8.874;2023-03-23T15:00:52;15.50;99.90
13686;DHT22;6915;48.296;8.874;2023-03-23T15:03:24;15.60;99.90
13686;DHT22;6915;48.296;8.874;2023-03-23T15:05:57;15.50;99.90
13686;DHT22;6915;48.296;8.874;2023-03-23T15:08:28;15.50;99.90
13686;DHT22;6915;48.296;8.874;2023-03-23T15:11:20;15.50;99.90
13686;DHT22;6915;48.296;8.874;2023-03-23T15:13:52;15.50;99.90
13686;DHT22;6915;48.296;8.874;2023-03-23T15:16:24;15.50;99.90
13686;DHT22;6915;48.296;8.874;2023-03-23T15:18:57;15.50;99.90
13686;DHT22;6915;48.296;8.874;2023-03-23T15:21:30;15.50;99.90
13686;DHT22;6915;48.296;8.874;2023-03-23T15:24:00;15.50;99.90
13686;DHT22;6915;48.296;8.874;2023-03-23T15:26:34;15.50;99.90
13686;DHT22;6915;48.296;8.874;2023-03-23T15:29:14;15.50;99.90
13686;DHT22;6915;48.296;8.874;2023-03-23T15:31:46;15.50;99.90
13686;DHT22;6915;48.296;8.874;2023-03-23T15:34:20;15.40;99.90
13686;DHT22;6915;48.296;8.874;2023-03-23T15:36:57;15.40;99.90
13686;DHT22;6915;48.296;8.874;2023-03-23T15:39:31;15.40;99.90
13686;DHT22;6915;48.296;8.874;2023-03-23T15:42:06;15.30;99.90
13686;DHT22;6915;48.296;8.874;2023-03-23T15:44:35;15.30;99.90
13686;DHT22;6915;48.296;8.874;2023-03-23T15:47:14;15.30;99.90
13686;DHT22;6915;48.296;8.874;2023-03-23T15:49:42;15.40;99.90
13686;DHT22;6915;48.296;8.874;2023-03-23T15:52:14;15.30;99.90
13686;DHT22;6915;48.296;8.874;2023-03-23T15:54:50;15.30;99.90
13686;DHT22;6915;48.296;8.874;2023-03-23T15:57:19;15.30;99.90
13686;DHT22;6915;48.296;8.874;2023-03-23T15:59:47;15.30;99.90
13686;DHT22;6915;48.296;8.874;2023-03-23T16:02:22;15.30;99.90
13686;DHT22;6915;48.296;8.874;2023-03-23T16:04:54;15.30;99.90
13686;DHT22;6915;48.296;8.874;2023-03-23T16:07:26;15.30;99.90
13686;DHT22;6915;48.296;8.874;2023-03-23T16:09:54;15.30;99.90
13686;DHT22;6915;48.296;8.874;2023-03-23T16:12:23;15.30;99.90
13686;DHT22;6915;48.296;8.874;2023-03-23T16:14:52;15.20;99.90
13686;DHT22;6915;48.296;8.874;2023-03-23T16:17:21;15.20;99.90
13686;DHT22;6915;48.296;8.874;2023-03-23T16:19:50;15.20;99.90
13686;DHT22;6915;48.296;8.874;2023-03-23T16:22:19;15.20;99.90
13686;DHT22;6915;48.296;8.874;2023-03-23T16:24:49;15.20;99.90
13686;DHT22;6915;48.296;8.874;2023-03-23T16:27:18;15.20;99.90
13686;DHT22;6915;48.296;8.874;2023-03-23T16:29:48;15.10;99.90
13686;DHT22;6915;48.296;8.874;2023-03-23T16:32:16;15.10;99.90
13686;DHT22;6915;48.296;8.874;2023-03-23T16:34:45;15.10;99.90